createdAt,value
2022-09-24T00:00:39.262Z,82.6
2022-09-24T00:03:55.701Z,82.3
2022-09-24T00:06:45.480Z,82
2022-09-24T00:09:33.949Z,82.5
2022-09-24T00:12:22.101Z,82.3
2022-09-24T00:15:10.489Z,83.2
2022-09-24T00:17:58.521Z,82.7
2022-09-24T00:20:46.686Z,83.8
2022-09-24T00:23:34.570Z,83.7
2022-09-24T00:26:22.190Z,83.8
2022-09-24T00:29:41.902Z,83.4
2022-09-24T00:32:29.510Z,83.8
2022-09-24T00:35:17.171Z,84
2022-09-24T00:38:04.725Z,84.4
2022-09-24T00:40:53.985Z,83.6
2022-09-24T00:43:42.077Z,83.1
2022-09-24T00:46:29.803Z,83.6
2022-09-24T00:49:24.469Z,83.7
2022-09-24T00:52:12.202Z,83.8
2022-09-24T00:55:02.919Z,84.2
2022-09-24T00:57:51.966Z,85.2
2022-09-24T01:00:42.759Z,85
2022-09-24T01:03:30.857Z,84.7
2022-09-24T01:06:25.376Z,85.3
2022-09-24T01:09:13.125Z,84.6
2022-09-24T01:12:01.673Z,85.8
2022-09-24T01:14:59.648Z,85.3
2022-09-24T01:17:56.383Z,85.3
2022-09-24T01:20:50.240Z,85.3
2022-09-24T01:23:54.737Z,85.3
2022-09-24T01:27:21.880Z,85.1
2022-09-24T01:30:31.078Z,85
2022-09-24T01:33:22.958Z,84.9
2022-09-24T01:36:15.669Z,85
2022-09-24T01:39:05.783Z,84.4
2022-09-24T01:41:55.340Z,84.5
2022-09-24T01:44:43.477Z,84.8
2022-09-24T01:47:35.165Z,84.2
2022-09-24T01:50:24.885Z,84.2
2022-09-24T01:53:16.175Z,84.2
2022-09-24T01:56:06.611Z,83.9
2022-09-24T01:59:00.650Z,84.4
2022-09-24T02:01:55.288Z,84.6
2022-09-24T02:04:49.821Z,85.1
2022-09-24T02:07:44.500Z,85.7
2022-09-24T02:10:40.814Z,85.3
2022-09-24T02:13:32.972Z,85.5
2022-09-24T02:16:27.021Z,86
2022-09-24T02:19:20.242Z,86.5
2022-09-24T02:22:13.900Z,86.2
2022-09-24T02:25:03.019Z,86.5
2022-09-24T02:27:54.723Z,86.3
2022-09-24T02:30:42.622Z,86
2022-09-24T02:33:36.589Z,86.1
2022-09-24T02:36:59.571Z,86.9
2022-09-24T02:39:51.244Z,86.6
2022-09-24T02:42:38.758Z,86.8
2022-09-24T02:45:28.087Z,86.7
2022-09-24T02:48:16.939Z,86.6
2022-09-24T02:51:04.636Z,86.8
2022-09-24T02:53:53.001Z,86.2
2022-09-24T02:56:40.601Z,86.1
2022-09-24T02:59:28.454Z,87
2022-09-24T03:02:16.439Z,87.5
2022-09-24T03:05:04.150Z,87.2
2022-09-24T03:07:52.954Z,86.9
2022-09-24T03:10:41.056Z,87.2
2022-09-24T03:13:28.878Z,86.9
2022-09-24T03:16:16.591Z,86.6
2022-09-24T03:19:04.784Z,86.5
2022-09-24T03:21:53.689Z,86.3
2022-09-24T03:24:41.383Z,87.4
2022-09-24T03:27:29.042Z,87.7
2022-09-24T03:30:16.945Z,87.2
2022-09-24T03:33:36.077Z,87
2022-09-24T03:36:26.423Z,87.1
2022-09-24T03:39:14.102Z,86.9
2022-09-24T03:42:01.941Z,86.5
2022-09-24T03:44:49.913Z,86.4
2022-09-24T03:47:38.805Z,87
2022-09-24T03:50:27.346Z,87.3
2022-09-24T03:53:14.891Z,87.1
2022-09-24T03:56:03.426Z,86.8
2022-09-24T03:58:54.162Z,86.8
2022-09-24T04:01:41.887Z,86.4
2022-09-24T04:04:30.186Z,86.9
2022-09-24T04:07:17.872Z,86.4
2022-09-24T04:10:06.013Z,87.4
2022-09-24T04:12:55.340Z,88.4
2022-09-24T04:15:43.465Z,87.7
2022-09-24T04:18:36.961Z,88.5
2022-09-24T04:21:26.743Z,88.6
2022-09-24T04:24:14.951Z,89
2022-09-24T04:27:02.627Z,89
2022-09-24T04:29:50.248Z,89.1
2022-09-24T04:32:38.889Z,88.7
2022-09-24T04:35:26.779Z,88.8
2022-09-24T04:38:16.748Z,89.7
2022-09-24T04:41:05.856Z,90.2
2022-09-24T04:43:54.932Z,90.2
2022-09-24T04:46:42.881Z,89.8
2022-09-24T04:49:30.656Z,90
2022-09-24T04:52:18.184Z,89.7
2022-09-24T04:55:05.900Z,89.5
2022-09-24T04:57:55.244Z,89.3
2022-09-24T05:00:43.584Z,89.6
2022-09-24T05:03:32.375Z,89.9
2022-09-24T05:06:20.211Z,90.1
2022-09-24T05:09:12.403Z,90.1
2022-09-24T05:12:00.448Z,90.6
2022-09-24T05:14:48.820Z,90
2022-09-24T05:17:36.489Z,90.2
2022-09-24T05:20:24.710Z,90.4
2022-09-24T05:23:12.582Z,91.1
2022-09-24T05:26:00.857Z,90.5
2022-09-24T05:29:20.233Z,90.4
2022-09-24T05:32:08.262Z,91
2022-09-24T05:34:57.706Z,90.6
2022-09-24T05:37:45.293Z,90.7
2022-09-24T05:40:34.242Z,90.7
2022-09-24T05:43:39.182Z,91.6
2022-09-24T05:46:26.801Z,91.1
2022-09-24T05:49:14.497Z,90.7
2022-09-24T05:52:02.263Z,90.5
2022-09-24T05:54:51.318Z,90.1
2022-09-24T05:57:39.178Z,90
2022-09-24T06:00:26.990Z,90.5
2022-09-24T06:03:14.671Z,90.5
2022-09-24T06:06:04.137Z,90.4
2022-09-24T06:08:52.064Z,90.3
2022-09-24T06:11:41.134Z,90.5
2022-09-24T06:14:29.052Z,89.9
2022-09-24T06:17:16.652Z,89.9
2022-09-24T06:20:04.577Z,90.3
2022-09-24T06:22:53.230Z,90.5
2022-09-24T06:25:42.199Z,89.9
2022-09-24T06:28:35.220Z,90.1
2022-09-24T06:31:23.652Z,90.1
2022-09-24T06:34:11.576Z,89.8
2022-09-24T06:36:59.769Z,90.1
2022-09-24T06:39:47.311Z,89.4
2022-09-24T06:42:34.851Z,89.8
2022-09-24T06:45:22.881Z,89.2
2022-09-24T06:48:11.715Z,89.5
2022-09-24T06:51:00.110Z,89.1
2022-09-24T06:53:50.409Z,88.5
2022-09-24T06:56:38.313Z,88.3
2022-09-24T06:59:25.878Z,88.1
2022-09-24T07:02:14.261Z,88.4
2022-09-24T07:05:01.917Z,87.6
2022-09-24T07:07:50.977Z,86.6
2022-09-24T07:10:38.613Z,86.5
2022-09-24T07:13:28.778Z,86
2022-09-24T07:16:16.691Z,85.7
2022-09-24T07:19:04.257Z,85.6
2022-09-24T07:21:51.978Z,85.4
2022-09-24T07:24:39.566Z,85.6
2022-09-24T07:27:27.142Z,84.2
2022-09-24T07:30:14.781Z,84.3
2022-09-24T07:33:02.705Z,84.5
2022-09-24T07:35:52.104Z,84.2
2022-09-24T07:38:39.822Z,83.6
2022-09-24T07:41:27.851Z,83.5
2022-09-24T07:44:15.417Z,83.7
2022-09-24T07:47:05.073Z,83.8
2022-09-24T07:49:53.213Z,83
2022-09-24T07:52:40.927Z,82.6
2022-09-24T07:55:28.558Z,82.6
2022-09-24T07:58:16.163Z,83.4
2022-09-24T08:01:04.046Z,83.3
2022-09-24T08:03:52.328Z,83.2
2022-09-24T08:06:44.965Z,82.8
2022-09-24T08:09:34.507Z,82.6
2022-09-24T08:12:22.204Z,81.4
2022-09-24T08:15:11.737Z,81.1
2022-09-24T08:18:00.401Z,79.2
2022-09-24T08:20:48.977Z,79.7
2022-09-24T08:23:36.668Z,78.8
2022-09-24T08:26:25.277Z,78
2022-09-24T08:29:13.409Z,78.4
2022-09-24T08:32:01.812Z,78.2
2022-09-24T08:34:49.899Z,78.8
2022-09-24T08:37:37.574Z,78.2
2022-09-24T08:40:25.341Z,78.1
2022-09-24T08:43:16.538Z,76.6
2022-09-24T08:46:14.080Z,75
2022-09-24T08:49:41.233Z,76
2022-09-24T08:52:34.284Z,75
2022-09-24T08:55:34.505Z,74.5
2022-09-24T08:58:25.977Z,74.2
2022-09-24T09:01:22.109Z,72.8
2022-09-24T09:04:21.797Z,72.1
2022-09-24T09:07:15.676Z,72.7
2022-09-24T09:10:07.837Z,71.6
2022-09-24T09:13:00.312Z,70.6
2022-09-24T09:15:56.032Z,70.8
2022-09-24T09:18:48.991Z,69.7
2022-09-24T09:21:41.673Z,70.2
2022-09-24T09:24:37.277Z,70.9
2022-09-24T09:27:30.894Z,70.2
2022-09-24T09:30:18.752Z,67.3
2022-09-24T09:33:07.048Z,67.9
2022-09-24T09:36:10.829Z,64.9
2022-09-24T09:39:18.473Z,67.3
2022-09-24T09:42:18.933Z,67
2022-09-24T09:45:13.967Z,66.1
2022-09-24T09:48:12.515Z,64.9
2022-09-24T09:51:04.692Z,63.5
2022-09-24T09:53:58.891Z,64.8
2022-09-24T09:56:47.843Z,63.1
2022-09-24T09:59:35.774Z,63.4
2022-09-24T10:02:23.894Z,63.3
2022-09-24T10:05:19.331Z,61.5
2022-09-24T10:08:13.287Z,61
2022-09-24T10:11:07.071Z,60.7
2022-09-24T10:14:00.811Z,59.6
2022-09-24T10:16:49.665Z,59.9
2022-09-24T10:19:40.488Z,60.1
2022-09-24T10:22:32.471Z,59.7
2022-09-24T10:25:23.151Z,58.4
2022-09-24T10:28:13.929Z,58.6
2022-09-24T10:31:37.178Z,55.7
2022-09-24T10:34:26.791Z,55.8
2022-09-24T10:37:14.728Z,54.1
2022-09-24T10:40:04.441Z,57.1
2022-09-24T10:43:00.035Z,53
2022-09-24T10:45:49.879Z,51.3
2022-09-24T10:49:13.248Z,50.7
2022-09-24T10:52:14.768Z,52.4
2022-09-24T10:55:20.616Z,51.3
2022-09-24T10:58:21.951Z,48.4
2022-09-24T11:01:26.653Z,47.5
2022-09-24T11:04:24.758Z,48.2
2022-09-24T11:07:26.219Z,47
2022-09-24T11:10:37.312Z,46
2022-09-24T11:13:46.826Z,46.5
2022-09-24T11:16:49.809Z,46.9
2022-09-24T11:19:55.355Z,44
2022-09-24T11:23:06.285Z,46.4
2022-09-24T11:26:35.725Z,46.1
2022-09-24T11:29:37.483Z,46.1
2022-09-24T11:32:37.972Z,47
2022-09-24T11:35:40.521Z,48.5
2022-09-24T11:38:42.233Z,48.4
2022-09-24T11:41:46.237Z,46.7
2022-09-24T11:44:44.881Z,47.1
2022-09-24T11:47:48.789Z,46.3
2022-09-24T11:50:51.741Z,46.4
2022-09-24T11:53:54.085Z,47.9
2022-09-24T11:56:46.598Z,48.4
2022-09-24T11:59:39.090Z,46.7
2022-09-24T12:02:33.929Z,45.3
2022-09-24T12:05:26.243Z,47.1
2022-09-24T12:08:20.234Z,47.5
2022-09-24T12:11:15.029Z,46.7
2022-09-24T12:14:09.728Z,46.7
2022-09-24T12:17:03.861Z,47.5
2022-09-24T12:20:00.247Z,47
2022-09-24T12:22:55.306Z,46.4
2022-09-24T12:25:47.734Z,46.9
2022-09-24T12:28:38.424Z,43.3
2022-09-24T12:32:05.881Z,41.9
2022-09-24T12:35:36.492Z,42.6
2022-09-24T12:38:39.820Z,45.1
2022-09-24T12:41:32.217Z,43
2022-09-24T12:44:22.741Z,44.8
2022-09-24T12:47:19.718Z,46.6
2022-09-24T12:50:10.076Z,47.1
2022-09-24T12:53:06.588Z,47.5
2022-09-24T12:56:09.481Z,47.9
2022-09-24T12:58:57.506Z,48.5
2022-09-24T13:01:45.498Z,51.2
2022-09-24T13:04:33.258Z,51.3
2022-09-24T13:07:20.972Z,51.4
2022-09-24T13:10:19.284Z,50.7
2022-09-24T13:13:10.697Z,52
2022-09-24T13:16:10.337Z,52.5
2022-09-24T13:19:04.541Z,52
2022-09-24T13:22:09.524Z,51.5
2022-09-24T13:25:10.480Z,53
2022-09-24T13:28:09.626Z,50.9
2022-09-24T13:31:14.975Z,51.1
2022-09-24T13:34:12.665Z,50.3
2022-09-24T13:37:05.650Z,50.8
2022-09-24T13:40:03.328Z,51.2
2022-09-24T13:43:01.323Z,51
2022-09-24T13:45:55.909Z,50.2
2022-09-24T13:48:44.242Z,49.3
2022-09-24T13:51:37.321Z,51.1
2022-09-24T13:54:26.857Z,49.4
2022-09-24T13:57:19.572Z,50.1
2022-09-24T14:00:10.040Z,48.9
2022-09-24T14:03:04.561Z,49.8
2022-09-24T14:06:07.150Z,52.5
2022-09-24T14:08:57.765Z,50.6
2022-09-24T14:11:45.966Z,51.1
2022-09-24T14:14:36.762Z,52.7
2022-09-24T14:17:32.062Z,51.9
2022-09-24T14:20:19.622Z,51
2022-09-24T14:23:08.362Z,51.5
2022-09-24T14:26:03.209Z,51
2022-09-24T14:28:52.926Z,51.9
2022-09-24T14:31:41.667Z,51.1
2022-09-24T14:34:33.982Z,53.4
2022-09-24T14:37:24.952Z,52.9
2022-09-24T14:40:17.121Z,52.3
2022-09-24T14:43:08.113Z,53.2
2022-09-24T14:46:03.482Z,50.7
2022-09-24T14:48:58.741Z,49.2
2022-09-24T14:52:05.150Z,49.8
2022-09-24T14:55:11.849Z,48.5
2022-09-24T14:58:01.699Z,47.8
2022-09-24T15:00:49.610Z,48.5
2022-09-24T15:03:40.217Z,48.6
2022-09-24T15:06:32.779Z,49
2022-09-24T15:09:22.346Z,49.5
2022-09-24T15:12:13.069Z,50.2
2022-09-24T15:15:06.345Z,51.1
2022-09-24T15:18:13.430Z,51.1
2022-09-24T15:21:03.034Z,50.7
2022-09-24T15:23:53.573Z,51
2022-09-24T15:26:42.318Z,51.7
2022-09-24T15:29:32.556Z,53
2022-09-24T15:32:20.161Z,52.7
2022-09-24T15:35:08.175Z,54.2
2022-09-24T15:38:00.303Z,55
2022-09-24T15:40:48.217Z,55.4
2022-09-24T15:43:38.261Z,55.8
2022-09-24T15:46:26.354Z,57
2022-09-24T15:49:14.125Z,56.6
2022-09-24T15:52:06.800Z,57.7
2022-09-24T15:55:00.757Z,58.1
2022-09-24T15:57:57.521Z,58.2
2022-09-24T16:00:46.582Z,58.8
2022-09-24T16:03:34.727Z,59.6
2022-09-24T16:06:22.321Z,60.3
2022-09-24T16:09:10.174Z,60.8
2022-09-24T16:11:58.182Z,61.5
2022-09-24T16:14:46.369Z,62.4
2022-09-24T16:17:33.954Z,63.4
2022-09-24T16:20:21.585Z,64.4
2022-09-24T16:23:09.419Z,64.7
2022-09-24T16:25:59.279Z,64.7
2022-09-24T16:28:48.241Z,65.6
2022-09-24T16:31:36.335Z,66.5
2022-09-24T16:34:24.157Z,67.4
2022-09-24T16:37:11.841Z,67.4
2022-09-24T16:40:01.436Z,67.7
2022-09-24T16:42:50.716Z,68.2
2022-09-24T16:45:38.430Z,69
2022-09-24T16:48:26.176Z,69.5
2022-09-24T16:51:13.726Z,69.7
2022-09-24T16:54:02.360Z,70.7
2022-09-24T16:56:50.825Z,71.3
2022-09-24T16:59:38.571Z,72.2
2022-09-24T17:02:26.285Z,72.7
2022-09-24T17:05:13.969Z,73.1
2022-09-24T17:08:01.699Z,73.7
2022-09-24T17:10:51.395Z,74.2
2022-09-24T17:13:39.562Z,74.4
2022-09-24T17:16:27.797Z,74.7
2022-09-24T17:19:15.863Z,74.7
2022-09-24T17:22:03.405Z,74.3
2022-09-24T17:24:51.321Z,74.6
2022-09-24T17:27:39.210Z,74.4
2022-09-24T17:30:27.168Z,74.9
2022-09-24T17:33:41.385Z,75.2
2022-09-24T17:36:32.521Z,75.5
2022-09-24T17:39:21.948Z,77.1
2022-09-24T17:42:09.797Z,78
2022-09-24T17:44:57.528Z,76.9
2022-09-24T17:47:45.133Z,76.9
2022-09-24T17:50:50.630Z,77.2
2022-09-24T17:53:40.787Z,77.6
2022-09-24T17:56:29.063Z,77.4
2022-09-24T17:59:20.914Z,77
2022-09-24T18:02:12.328Z,77
2022-09-24T18:04:59.976Z,77.2
2022-09-24T18:07:48.002Z,77
2022-09-24T18:10:35.650Z,77.2
2022-09-24T18:13:23.754Z,77.6
2022-09-24T18:16:11.797Z,78
2022-09-24T18:19:01.745Z,78.3
2022-09-24T18:21:49.682Z,78.6
2022-09-24T18:24:37.665Z,79
2022-09-24T18:27:26.754Z,79.2
2022-09-24T18:30:16.521Z,79.3
2022-09-24T18:33:04.225Z,79.2
2022-09-24T18:35:52.024Z,79.5
2022-09-24T18:38:39.489Z,80.1
2022-09-24T18:41:28.952Z,80.4
2022-09-24T18:44:16.970Z,80.4
2022-09-24T18:47:04.567Z,80.4
2022-09-24T18:49:52.289Z,80.6
2022-09-24T18:52:39.845Z,81.1
2022-09-24T18:55:27.472Z,80.9
2022-09-24T18:58:15.961Z,81.2
2022-09-24T19:01:03.531Z,81.3
2022-09-24T19:03:54.222Z,81
2022-09-24T19:06:44.721Z,80.7
2022-09-24T19:09:34.375Z,80.9
2022-09-24T19:12:21.983Z,82
2022-09-24T19:15:10.761Z,82.8
2022-09-24T19:17:58.466Z,82.3
2022-09-24T19:20:46.281Z,82.3
2022-09-24T19:23:33.884Z,82.2
2022-09-24T19:26:22.245Z,82.4
2022-09-24T19:29:11.489Z,82.4
2022-09-24T19:31:59.624Z,82
2022-09-24T19:34:47.827Z,82.5
2022-09-24T19:37:35.393Z,82.9
2022-09-24T19:40:23.144Z,84.5
2022-09-24T19:43:10.817Z,84.2
2022-09-24T19:45:58.514Z,84.5
2022-09-24T19:48:47.822Z,84.5
2022-09-24T19:51:35.607Z,83.8
2022-09-24T19:54:24.224Z,83.5
2022-09-24T19:57:11.900Z,83.4
2022-09-24T19:59:59.804Z,83.7
2022-09-24T20:02:50.273Z,84.3
2022-09-24T20:05:38.146Z,84.6
2022-09-24T20:08:27.872Z,84.4
2022-09-24T20:11:15.431Z,84.2
2022-09-24T20:14:06.391Z,84.6
2022-09-24T20:16:55.924Z,84.8
2022-09-24T20:19:43.503Z,85.1
2022-09-24T20:22:30.989Z,85.4
2022-09-24T20:25:18.659Z,85.3
2022-09-24T20:30:35.576Z,85
2022-09-24T20:33:23.247Z,85.3
2022-09-24T20:36:16.079Z,85.4
2022-09-24T20:39:05.844Z,85.4
2022-09-24T20:41:53.765Z,85.6
2022-09-24T20:44:46.184Z,85.5
2022-09-24T20:47:34.012Z,85.7
2022-09-24T20:50:23.658Z,85.8
2022-09-24T20:53:11.276Z,85.8
2022-09-24T20:55:58.776Z,85.8
2022-09-24T20:58:46.810Z,85.8
2022-09-24T21:01:36.271Z,85.9
2022-09-24T21:04:24.713Z,85.7
2022-09-24T21:07:12.713Z,85.8
2022-09-24T21:10:01.825Z,86
2022-09-24T21:12:51.241Z,86.3
2022-09-24T21:15:39.290Z,86.8
2022-09-24T21:18:33.357Z,87
2022-09-24T21:21:29.145Z,87
2022-09-24T21:24:19.997Z,87.3
2022-09-24T21:27:07.979Z,87.3
2022-09-24T21:29:56.688Z,87
2022-09-24T21:32:44.645Z,86.9
2022-09-24T21:35:32.367Z,86.8
2022-09-24T21:38:19.801Z,86.9
2022-09-24T21:41:07.274Z,87.2
2022-09-24T21:43:55.939Z,87.1
2022-09-24T21:46:44.059Z,87.3
2022-09-24T21:49:32.338Z,88.2
2022-09-24T21:52:21.081Z,87.7
2022-09-24T21:55:09.096Z,88.1
2022-09-24T21:57:58.224Z,88
2022-09-24T22:00:46.152Z,88.4
2022-09-24T22:03:34.636Z,88.5
2022-09-24T22:06:22.532Z,87.6
2022-09-24T22:09:13.337Z,87.7
2022-09-24T22:12:01.331Z,87.8
2022-09-24T22:14:49.600Z,87.6
2022-09-24T22:17:37.275Z,88.9
2022-09-24T22:20:24.882Z,88.5
2022-09-24T22:23:13.368Z,88.3
2022-09-24T22:26:01.815Z,88.2
2022-09-24T22:28:51.151Z,88.8
2022-09-24T22:31:39.600Z,89
2022-09-24T22:34:27.236Z,88.4
2022-09-24T22:37:46.916Z,88.8
2022-09-24T22:40:35.930Z,88.5
2022-09-24T22:43:23.595Z,88.4
2022-09-24T22:46:11.222Z,88.4
2022-09-24T22:49:01.033Z,88.5
2022-09-24T22:51:49.597Z,88
2022-09-24T22:54:37.213Z,87.4
2022-09-24T22:57:24.833Z,87.2
2022-09-24T23:00:12.458Z,87.2
2022-09-24T23:03:01.463Z,87.1
2022-09-24T23:05:49.434Z,87
2022-09-24T23:08:38.457Z,86.8
2022-09-24T23:11:27.220Z,86.6
2022-09-24T23:14:17.131Z,86.5
2022-09-24T23:17:05.465Z,86.2
2022-09-24T23:19:53.991Z,86.1
2022-09-24T23:22:41.592Z,86.2
2022-09-24T23:25:29.375Z,86.7
2022-09-24T23:28:16.978Z,86.8
2022-09-24T23:31:04.711Z,87
2022-09-24T23:33:56.205Z,86.8
2022-09-24T23:36:45.860Z,87.2
2022-09-24T23:39:33.644Z,87.4
2022-09-24T23:42:22.958Z,87.8
2022-09-24T23:45:10.681Z,88.6
2022-09-24T23:47:58.232Z,88.2
2022-09-24T23:50:46.447Z,88.6
2022-09-24T23:53:34.066Z,87.9
2022-09-24T23:56:22.447Z,87.5
2022-09-24T23:59:10.328Z,87.4
